Aérodrome :
LOGIN :

S'inscrire | Disclaimer

   EN    FR    IT 

 










Légende :    VFR   VFR Marginal   IFR   IFR Intensif   IFR Très Intensif
Visi : 
Plafond : 
>= 8 km
>= 3000ft
5 à 8 km
1000 à 3000 ft
1500m à 5 km
500 à 1000 ft
800 à 1500m
200 à 500 ft
< 800m
< 200 ft
Symboles :   Orages  Brouillard  Fortes neiges  Fortes précipitations  Vent > 20 kt
SIGMETs :   Divers  Orages  Givrage  Turbulence  Onde Orograph.  Cendres Volcan.







- Altitude de l'aérodrome : 412 ft
- Code IATA : ORE
- Voir les cartes d'approche


LFOJ - Orleans

DERNIER METAR :
  • 200930Z AUTO 02005KT 0700 R25/1000U FG VV/// 03/03 Q1012 BECMG 9999 NSW BKN008

METARs EXPIRÉS :
  • 200900Z AUTO 02008KT 1000 0900 R25/1400D BCFG VV/// 03/03 Q1011 BECMG 4000 BR OVC004
  • 200830Z AUTO 01006KT 0600 0550 R25/0800N FG VV/// 03/03 Q1011 BECMG 4000 BR OVC004
  • 200800Z AUTO 02006KT 0450 R25/0550N FG VV/// 04/03 Q1010 BECMG 4000 BR OVC003
  • 200730Z AUTO 02004KT 0500 0450 R25/0600N FG VV/// 04/04 Q1010 BECMG 4000 BR OVC003
  • 200700Z AUTO 02002KT 0450 0400 R25/0500N FG VV/// 04/04 Q1009 NOSIG

TAF TAF LFOJ
Valide du 20 à 09h jusqu'au 21 à 09h UTC


200800Z 2009/2109 02004KT 0800 FG OVC001
BECMG 2009/2011 4000 BR OVC004
BECMG 2011/2013 01010KT 9999 NSW BKN008
TEMPO 2013/2018 BKN012 BKN020
BECMG 2101/2103 CAVOK
TEMPO 2104/2109 3000 BR BKN004
PROB30
TEMPO 2106/2108 0600 FZFG VV///
Pas de NOTAMs connus pour ce terrain.



MET'MAP, la Météo Aéronautique d'un coup d'oeil ! - Copyright ORBIFLY Décembre 2007 - Disclaimer

ORBIFLY MET'MAP TEAM :

Programmation & Développement : Alexandra Zaïnal
Conception & Développement : Baudouin d'Aumeries
Co-Programmation & Développement : Marc-Olivier Méhu
Soutien technique & logistique : Manuel Goepfert

Contact : metmap@orbifly.com




SOURCES & CREDITS :

   NOAA